Time;durP1;ratioP1;P1;durP2;ratioP2;P2;SDS_P1;SDS_P2;PMS_P1;PMS_P2;Temp;Humidity;BMP_temperature;BMP_pressure;BME280_temperature;BME280_humidity;BME280_pressure;Samples;Min_cycle;Max_cycle;Signal;HPM_P1;HPM_P2
2020/12/07 00:01:53;;;;;;;48.43;28.30;;;;;;;;;;5109225;27;20054;-63
2020/12/07 00:04:19;;;;;;;43.67;27.27;;;;;;;;;;5124791;27;20035;-63
2020/12/07 00:06:45;;;;;;;45.57;27.90;;;;;;;;;;5123906;27;20042;-63
2020/12/07 00:09:11;;;;;;;44.57;28.23;;;;;;;;;;5128790;27;20366;-63
2020/12/07 00:11:37;;;;;;;48.97;29.00;;;;;;;;;;5123802;27;20031;-63
2020/12/07 00:14:03;;;;;;;44.07;26.87;;;;;;;;;;5126482;27;20617;-63
2020/12/07 00:16:29;;;;;;;45.93;28.60;;;;;;;;;;5107972;27;20019;-63
2020/12/07 00:18:55;;;;;;;45.30;27.80;;;;;;;;;;5120361;27;20038;-63
2020/12/07 00:21:21;;;;;;;46.13;28.13;;;;;;;;;;5124778;27;20034;-63
2020/12/07 00:23:47;;;;;;;46.60;27.57;;;;;;;;;;5122966;27;20495;-63
2020/12/07 00:26:13;;;;;;;43.80;28.37;;;;;;;;;;5122739;27;20066;-63
2020/12/07 00:28:39;;;;;;;44.00;27.33;;;;;;;;;;5123990;27;20027;-63
2020/12/07 00:31:06;;;;;;;41.50;25.33;;;;;;;;;;5125040;27;20054;-63
2020/12/07 00:33:32;;;;;;;45.33;25.80;;;;;;;;;;5117823;27;20050;-63
2020/12/07 00:35:58;;;;;;;43.43;25.60;;;;;;;;;;5126795;27;20031;-63
2020/12/07 00:38:24;;;;;;;48.50;28.83;;;;;;;;;;5122490;27;20403;-63
2020/12/07 00:40:51;;;;;;;42.37;27.70;;;;;;;;;;5118639;27;20087;-63
2020/12/07 00:43:17;;;;;;;41.60;26.07;;;;;;;;;;5123139;27;20023;-64
2020/12/07 00:45:43;;;;;;;42.53;23.77;;;;;;;;;;5122780;27;20043;-64
2020/12/07 00:48:09;;;;;;;44.57;27.17;;;;;;;;;;5117509;27;20027;-63
2020/12/07 00:50:35;;;;;;;48.63;28.40;;;;;;;;;;5122050;27;20039;-62
2020/12/07 00:53:05;;;;;;;48.93;28.00;;;;;;;;;;5118941;27;20030;-62
2020/12/07 00:55:31;;;;;;;47.93;26.80;;;;;;;;;;5107678;27;20035;-63
2020/12/07 00:57:57;;;;;;;59.80;28.63;;;;;;;;;;5107858;28;20416;-63
2020/12/07 01:00:23;;;;;;;51.33;28.20;;;;;;;;;;5116613;27;20027;-63
2020/12/07 01:02:49;;;;;;;45.20;26.57;;;;;;;;;;5121448;27;20031;-63
2020/12/07 01:05:15;;;;;;;49.50;27.20;;;;;;;;;;5122027;27;20036;-63
2020/12/07 01:07:41;;;;;;;46.33;26.30;;;;;;;;;;5122664;27;20025;-63
2020/12/07 01:10:07;;;;;;;55.43;27.80;;;;;;;;;;5116148;27;20439;-63
2020/12/07 01:12:33;;;;;;;46.67;27.33;;;;;;;;;;5124904;27;20110;-63
2020/12/07 01:14:59;;;;;;;51.60;27.67;;;;;;;;;;5120950;27;20027;-64
2020/12/07 01:17:25;;;;;;;47.03;26.37;;;;;;;;;;5126054;27;20482;-64
2020/12/07 01:19:52;;;;;;;47.50;25.23;;;;;;;;;;5103781;27;20035;-64
2020/12/07 01:22:18;;;;;;;47.17;26.70;;;;;;;;;;5123352;27;20405;-63
2020/12/07 01:24:44;;;;;;;41.80;24.63;;;;;;;;;;5119922;27;20042;-64
2020/12/07 01:27:10;;;;;;;36.30;21.40;;;;;;;;;;5126807;27;20028;-64
2020/12/07 01:29:36;;;;;;;36.33;23.40;;;;;;;;;;5120625;27;20031;-64
2020/12/07 01:32:02;;;;;;;38.67;23.63;;;;;;;;;;5127679;27;20015;-64
2020/12/07 01:34:29;;;;;;;33.90;21.20;;;;;;;;;;5127049;27;20034;-64
2020/12/07 01:36:55;;;;;;;37.20;23.53;;;;;;;;;;5122783;27;20027;-64
2020/12/07 01:39:21;;;;;;;39.23;24.00;;;;;;;;;;5128894;27;20080;-64
2020/12/07 01:41:47;;;;;;;37.73;23.40;;;;;;;;;;5126297;27;20027;-64
2020/12/07 01:44:13;;;;;;;35.33;21.40;;;;;;;;;;5128776;27;20460;-64
2020/12/07 01:46:39;;;;;;;36.57;22.23;;;;;;;;;;5129913;27;20046;-64
2020/12/07 01:49:05;;;;;;;37.23;22.37;;;;;;;;;;5129783;27;20096;-64
2020/12/07 01:51:31;;;;;;;34.63;22.00;;;;;;;;;;5124508;27;20053;-64
2020/12/07 01:53:57;;;;;;;32.97;20.60;;;;;;;;;;5126534;27;20016;-64
2020/12/07 01:56:27;;;;;;;28.17;19.27;;;;;;;;;;5122674;27;20098;-64
2020/12/07 01:58:53;;;;;;;31.60;19.87;;;;;;;;;;5110154;27;20165;-64
2020/12/07 02:01:19;;;;;;;29.67;18.63;;;;;;;;;;5124634;27;20023;-64
2020/12/07 02:03:45;;;;;;;27.30;19.03;;;;;;;;;;5126965;27;20028;-64
2020/12/07 02:06:11;;;;;;;30.10;19.50;;;;;;;;;;5126128;27;20114;-64
2020/12/07 02:08:37;;;;;;;31.33;19.07;;;;;;;;;;5132037;27;20389;-64
2020/12/07 02:11:04;;;;;;;27.73;18.60;;;;;;;;;;5126094;27;20031;-64
2020/12/07 02:13:30;;;;;;;27.13;19.23;;;;;;;;;;5127829;27;20030;-64
2020/12/07 02:15:56;;;;;;;33.93;21.00;;;;;;;;;;5129761;27;20038;-64
2020/12/07 02:18:22;;;;;;;36.47;20.77;;;;;;;;;;5124448;27;20019;-64
2020/12/07 02:20:49;;;;;;;39.30;21.83;;;;;;;;;;5124927;27;20076;-63
2020/12/07 02:23:15;;;;;;;44.40;21.67;;;;;;;;;;5125387;27;20042;-64
2020/12/07 02:25:41;;;;;;;38.23;21.07;;;;;;;;;;5127391;27;20069;-65
2020/12/07 02:28:07;;;;;;;42.27;23.13;;;;;;;;;;5128324;27;20019;-64
2020/12/07 02:30:33;;;;;;;32.60;20.33;;;;;;;;;;5124805;27;20481;-64
2020/12/07 02:32:59;;;;;;;33.33;20.47;;;;;;;;;;5123430;27;20024;-64
2020/12/07 02:35:25;;;;;;;31.53;20.17;;;;;;;;;;5108814;27;20541;-64
2020/12/07 02:37:52;;;;;;;37.83;20.60;;;;;;;;;;5109693;27;20365;-64
2020/12/07 02:40:18;;;;;;;31.70;20.20;;;;;;;;;;5113288;27;20035;-64
2020/12/07 02:42:44;;;;;;;29.80;19.27;;;;;;;;;;5121839;27;20039;-64
2020/12/07 02:45:11;;;;;;;30.30;19.63;;;;;;;;;;5127434;27;20043;-64
2020/12/07 02:47:37;;;;;;;35.47;20.97;;;;;;;;;;5107969;27;20099;-64
2020/12/07 02:50:05;;;;;;;31.13;20.43;;;;;;;;;;5126800;27;20088;-64
2020/12/07 02:52:31;;;;;;;32.00;20.53;;;;;;;;;;5123966;27;20027;-64
2020/12/07 02:54:59;;;;;;;34.07;20.43;;;;;;;;;;5124377;27;20027;-64
2020/12/07 02:57:26;;;;;;;32.63;20.07;;;;;;;;;;5128188;27;20054;-63
2020/12/07 02:59:52;;;;;;;33.67;20.50;;;;;;;;;;5122723;27;20405;-63
2020/12/07 03:02:18;;;;;;;32.73;20.43;;;;;;;;;;5127075;27;20027;-64
2020/12/07 03:04:44;;;;;;;35.87;21.37;;;;;;;;;;5125939;27;20035;-63
2020/12/07 03:07:11;;;;;;;37.27;22.23;;;;;;;;;;5127299;27;20023;-64
2020/12/07 03:09:37;;;;;;;35.03;21.37;;;;;;;;;;5122137;27;20031;-63
2020/12/07 03:12:04;;;;;;;34.67;20.70;;;;;;;;;;5129565;27;20042;-64
2020/12/07 03:14:30;;;;;;;34.50;20.27;;;;;;;;;;5121850;27;20088;-64
2020/12/07 03:16:56;;;;;;;30.70;19.50;;;;;;;;;;5126469;27;20511;-63
2020/12/07 03:19:22;;;;;;;28.53;18.97;;;;;;;;;;5119280;27;20107;-64
2020/12/07 03:21:48;;;;;;;28.63;18.13;;;;;;;;;;5126998;27;20030;-63
2020/12/07 03:24:14;;;;;;;27.00;18.93;;;;;;;;;;5117229;27;20039;-64
2020/12/07 03:26:40;;;;;;;29.40;18.97;;;;;;;;;;5143598;27;20063;-64
2020/12/07 03:29:06;;;;;;;27.03;18.17;;;;;;;;;;5125938;27;20023;-64
2020/12/07 03:31:33;;;;;;;21.83;16.20;;;;;;;;;;5127975;27;20023;-64
2020/12/07 03:34:00;;;;;;;20.77;15.03;;;;;;;;;;5126903;27;20023;-66
2020/12/07 03:36:26;;;;;;;21.23;16.70;;;;;;;;;;5104516;27;20063;-63
2020/12/07 03:38:52;;;;;;;22.33;17.10;;;;;;;;;;5126695;27;20054;-64
2020/12/07 03:41:18;;;;;;;24.53;16.57;;;;;;;;;;5121445;27;20034;-64
2020/12/07 03:43:45;;;;;;;25.40;17.53;;;;;;;;;;5125462;27;20024;-64
2020/12/07 03:46:11;;;;;;;23.50;17.03;;;;;;;;;;5122844;27;20047;-64
2020/12/07 03:48:37;;;;;;;24.77;16.67;;;;;;;;;;5123693;27;20031;-64
2020/12/07 03:51:03;;;;;;;22.53;17.63;;;;;;;;;;5121234;27;20023;-63
2020/12/07 03:53:36;;;;;;;22.97;16.77;;;;;;;;;;5126253;27;20051;-63
2020/12/07 03:56:04;;;;;;;25.23;17.20;;;;;;;;;;5121344;27;20023;-64
2020/12/07 03:58:30;;;;;;;22.70;17.37;;;;;;;;;;5127622;27;20038;-63
2020/12/07 04:00:56;;;;;;;23.60;16.40;;;;;;;;;;5101384;27;20032;-63
2020/12/07 04:03:23;;;;;;;24.23;17.83;;;;;;;;;;5124684;27;20030;-64
2020/12/07 04:06:04;;;;;;;28.03;18.00;;;;;;;;;;5121955;27;20035;-63
2020/12/07 04:08:30;;;;;;;26.60;17.30;;;;;;;;;;5124766;27;20412;-64
2020/12/07 04:10:56;;;;;;;24.17;17.17;;;;;;;;;;5122749;27;20039;-64
2020/12/07 04:13:22;;;;;;;23.17;16.80;;;;;;;;;;5125630;27;20372;-64
2020/12/07 04:15:48;;;;;;;21.13;15.47;;;;;;;;;;5125744;27;20065;-64
2020/12/07 04:18:15;;;;;;;20.40;16.27;;;;;;;;;;5119942;27;20027;-64
2020/12/07 04:20:41;;;;;;;22.70;16.77;;;;;;;;;;5111176;27;20055;-64
2020/12/07 04:23:07;;;;;;;20.87;16.60;;;;;;;;;;5119856;27;20047;-64
2020/12/07 04:25:33;;;;;;;21.30;15.67;;;;;;;;;;5121828;27;20061;-64
2020/12/07 04:27:59;;;;;;;18.57;14.63;;;;;;;;;;5124147;27;20468;-64
2020/12/07 04:30:25;;;;;;;20.50;15.60;;;;;;;;;;5125687;27;20431;-64
2020/12/07 04:32:51;;;;;;;17.53;14.10;;;;;;;;;;5121301;27;20023;-64
2020/12/07 04:35:17;;;;;;;18.80;14.57;;;;;;;;;;5108430;27;20023;-64
2020/12/07 04:37:43;;;;;;;18.53;14.37;;;;;;;;;;5124596;27;20020;-64
2020/12/07 04:40:09;;;;;;;19.10;14.50;;;;;;;;;;5124523;27;20107;-64
2020/12/07 04:42:36;;;;;;;19.97;15.13;;;;;;;;;;5121112;27;20098;-64
2020/12/07 04:45:03;;;;;;;16.47;13.43;;;;;;;;;;5125921;27;20130;-64
2020/12/07 04:47:29;;;;;;;19.43;13.87;;;;;;;;;;5107223;27;20434;-64
2020/12/07 04:49:55;;;;;;;19.33;14.27;;;;;;;;;;5123681;27;20023;-64
2020/12/07 04:52:22;;;;;;;16.47;13.70;;;;;;;;;;5119678;27;20023;-64
2020/12/07 04:54:49;;;;;;;18.80;13.73;;;;;;;;;;5124167;27;20027;-64
2020/12/07 04:57:16;;;;;;;17.03;13.37;;;;;;;;;;5128310;27;20023;-64
2020/12/07 04:59:42;;;;;;;17.47;13.73;;;;;;;;;;5101027;27;20039;-64
2020/12/07 05:02:09;;;;;;;17.67;13.40;;;;;;;;;;5123913;27;20090;-64
2020/12/07 05:04:36;;;;;;;16.70;13.10;;;;;;;;;;5125092;27;20079;-64
2020/12/07 05:07:02;;;;;;;14.50;13.00;;;;;;;;;;5124952;27;20024;-64
2020/12/07 05:09:29;;;;;;;18.10;14.10;;;;;;;;;;5125040;27;20019;-64
2020/12/07 05:11:58;;;;;;;18.50;14.13;;;;;;;;;;5107178;27;20027;-64
2020/12/07 05:14:25;;;;;;;18.37;13.90;;;;;;;;;;5120514;27;20034;-64
2020/12/07 05:16:51;;;;;;;17.13;13.67;;;;;;;;;;5126000;27;20027;-64
2020/12/07 05:19:21;;;;;;;17.00;13.53;;;;;;;;;;5125430;27;20019;-64
2020/12/07 05:21:47;;;;;;;18.63;13.90;;;;;;;;;;5126048;27;20032;-64
2020/12/07 05:24:13;;;;;;;17.70;14.17;;;;;;;;;;5122005;27;20031;-64
2020/12/07 05:26:40;;;;;;;16.80;13.03;;;;;;;;;;5123047;27;20031;-64
2020/12/07 05:29:10;;;;;;;18.53;13.23;;;;;;;;;;5122659;27;20171;-64
2020/12/07 05:31:36;;;;;;;18.23;14.10;;;;;;;;;;5125324;27;20499;-64
2020/12/07 05:34:04;;;;;;;17.10;13.53;;;;;;;;;;5122865;27;20023;-64
2020/12/07 05:36:30;;;;;;;19.47;13.77;;;;;;;;;;5120280;27;20485;-64
2020/12/07 05:38:56;;;;;;;18.83;13.70;;;;;;;;;;5126703;27;20118;-64
2020/12/07 05:41:22;;;;;;;18.37;14.37;;;;;;;;;;5109738;28;20019;-64
2020/12/07 05:43:51;;;;;;;16.30;13.17;;;;;;;;;;5120675;27;20023;-64
2020/12/07 05:46:18;;;;;;;19.67;14.10;;;;;;;;;;5120319;27;20039;-64
2020/12/07 05:48:45;;;;;;;18.40;13.43;;;;;;;;;;5119612;27;20031;-64
2020/12/07 05:51:12;;;;;;;20.73;15.10;;;;;;;;;;5122596;27;20023;-64
2020/12/07 05:53:39;;;;;;;19.73;15.27;;;;;;;;;;5123859;27;20031;-64
2020/12/07 05:56:06;;;;;;;20.30;15.90;;;;;;;;;;5106873;27;20492;-63
2020/12/07 05:58:55;;;;;;;22.30;16.43;;;;;;;;;;5128544;27;20078;-64
2020/12/07 06:01:24;;;;;;;19.67;15.27;;;;;;;;;;5110816;27;20110;-64
2020/12/07 06:03:52;;;;;;;19.33;14.07;;;;;;;;;;5120661;27;20066;-63
2020/12/07 06:06:26;;;;;;;21.73;16.67;;;;;;;;;;5122499;27;20039;-64
2020/12/07 06:08:52;;;;;;;19.67;15.60;;;;;;;;;;5120492;27;20031;-64
2020/12/07 06:11:19;;;;;;;21.27;16.67;;;;;;;;;;5123964;27;20081;-64
2020/12/07 06:13:45;;;;;;;24.77;16.90;;;;;;;;;;5125931;27;20024;-64
2020/12/07 06:16:12;;;;;;;20.67;15.53;;;;;;;;;;5125217;27;20023;-64
2020/12/07 06:18:45;;;;;;;20.67;16.30;;;;;;;;;;5128512;27;20034;-64
2020/12/07 06:21:17;;;;;;;21.40;16.90;;;;;;;;;;5117117;27;20023;-64
2020/12/07 06:23:44;;;;;;;22.67;16.83;;;;;;;;;;5124250;27;20099;-64
2020/12/07 06:26:12;;;;;;;23.20;17.00;;;;;;;;;;5122973;27;20036;-63
2020/12/07 06:28:39;;;;;;;21.63;17.33;;;;;;;;;;5111589;27;20027;-63
2020/12/07 06:31:06;;;;;;;22.80;16.83;;;;;;;;;;5128415;27;20476;-64
2020/12/07 06:33:37;;;;;;;21.60;17.80;;;;;;;;;;5124138;27;20034;-63
2020/12/07 06:36:03;;;;;;;22.63;17.60;;;;;;;;;;5127364;27;20472;-64
2020/12/07 06:38:39;;;;;;;24.87;19.03;;;;;;;;;;5123655;27;20036;-63
2020/12/07 06:41:05;;;;;;;26.13;18.93;;;;;;;;;;5133601;27;20416;-63
2020/12/07 06:43:33;;;;;;;23.40;18.53;;;;;;;;;;5123382;27;20131;-64
2020/12/07 06:45:59;;;;;;;23.90;19.93;;;;;;;;;;5105748;27;20027;-64
2020/12/07 06:48:26;;;;;;;26.23;21.03;;;;;;;;;;5124001;27;20035;-64
2020/12/07 06:50:54;;;;;;;24.87;20.93;;;;;;;;;;5130413;27;20042;-63
2020/12/07 06:55:53;;;;;;;28.60;22.40;;;;;;;;;;5126384;27;20086;-63
2020/12/07 06:58:34;;;;;;;29.87;22.73;;;;;;;;;;5120923;27;20043;-64
2020/12/07 07:01:07;;;;;;;32.40;22.77;;;;;;;;;;5129800;27;20042;-64
2020/12/07 07:03:34;;;;;;;27.93;22.00;;;;;;;;;;5123808;27;20019;-64
2020/12/07 07:06:07;;;;;;;29.87;23.47;;;;;;;;;;5103576;27;20039;-64
2020/12/07 07:08:36;;;;;;;31.67;25.60;;;;;;;;;;5119866;27;20069;-64
2020/12/07 07:11:04;;;;;;;31.20;23.63;;;;;;;;;;5114438;27;20084;-63
2020/12/07 07:13:30;;;;;;;31.33;24.03;;;;;;;;;;5124018;27;20370;-63
2020/12/07 07:15:56;;;;;;;32.47;23.70;;;;;;;;;;5127837;27;20042;-63
2020/12/07 07:18:22;;;;;;;29.50;23.73;;;;;;;;;;5125527;27;20023;-64
2020/12/07 07:20:48;;;;;;;32.70;25.10;;;;;;;;;;5129232;27;20035;-64
2020/12/07 07:23:14;;;;;;;30.50;25.30;;;;;;;;;;5127019;27;20098;-64
2020/12/07 07:25:51;;;;;;;32.37;25.67;;;;;;;;;;5108782;27;20080;-64
2020/12/07 07:28:17;;;;;;;32.83;24.27;;;;;;;;;;5124391;27;20034;-64
2020/12/07 07:30:44;;;;;;;33.10;24.57;;;;;;;;;;5104243;27;20027;-64
2020/12/07 07:33:10;;;;;;;33.07;25.60;;;;;;;;;;5127762;27;20019;-64
2020/12/07 07:35:37;;;;;;;29.00;23.47;;;;;;;;;;5121966;27;20019;-63
2020/12/07 07:38:03;;;;;;;29.03;24.17;;;;;;;;;;5127406;27;20023;-64
2020/12/07 07:40:30;;;;;;;34.03;24.67;;;;;;;;;;5123526;27;20106;-63
2020/12/07 07:42:59;;;;;;;31.13;23.80;;;;;;;;;;5126674;27;20209;-64
2020/12/07 07:45:30;;;;;;;32.67;24.20;;;;;;;;;;5125599;27;20072;-64
2020/12/07 08:18:01;;;;;;;38.40;28.57;;;;;;;;;;5061430;28;20040;-64
2020/12/07 08:20:31;;;;;;;37.20;27.07;;;;;;;;;;5060062;28;20024;-64
2020/12/07 08:23:05;;;;;;;38.17;29.07;;;;;;;;;;5093091;27;20438;-64
2020/12/07 08:25:46;;;;;;;44.70;29.13;;;;;;;;;;5124573;27;20054;-64
2020/12/07 08:28:16;;;;;;;39.73;28.53;;;;;;;;;;5116845;27;20031;-64
2020/12/07 08:30:55;;;;;;;44.87;28.53;;;;;;;;;;5118152;27;20037;-64
2020/12/07 08:33:21;;;;;;;38.27;28.17;;;;;;;;;;5119669;27;20487;-65
2020/12/07 08:35:47;;;;;;;42.80;30.63;;;;;;;;;;5120769;27;20133;-64
2020/12/07 08:38:23;;;;;;;43.00;29.77;;;;;;;;;;5097775;27;20073;-64
2020/12/07 08:40:49;;;;;;;46.37;30.97;;;;;;;;;;5118168;27;20015;-64
2020/12/07 08:43:15;;;;;;;46.70;31.40;;;;;;;;;;5118485;27;20451;-64
2020/12/07 08:45:44;;;;;;;42.10;29.80;;;;;;;;;;5124931;27;20031;-64
2020/12/07 08:48:10;;;;;;;40.30;29.57;;;;;;;;;;5124679;27;20029;-63
2020/12/07 08:50:36;;;;;;;38.37;28.33;;;;;;;;;;5109269;27;20027;-64
2020/12/07 08:53:02;;;;;;;37.83;28.80;;;;;;;;;;5107835;27;20105;-64
2020/12/07 08:55:28;;;;;;;41.00;29.10;;;;;;;;;;5122865;27;20031;-64
2020/12/07 08:57:54;;;;;;;40.20;29.20;;;;;;;;;;5116597;27;20038;-64
2020/12/07 09:00:20;;;;;;;45.13;29.87;;;;;;;;;;5122072;27;20031;-64
2020/12/07 09:02:46;;;;;;;39.43;28.50;;;;;;;;;;5097152;27;20092;-63
2020/12/07 09:05:12;;;;;;;38.73;29.00;;;;;;;;;;5116116;27;20039;-64
2020/12/07 09:07:38;;;;;;;40.23;28.17;;;;;;;;;;5114065;27;20150;-64
2020/12/07 09:10:04;;;;;;;42.37;31.30;;;;;;;;;;5113973;27;20033;-63
2020/12/07 09:12:30;;;;;;;43.23;30.20;;;;;;;;;;5111496;27;20445;-63
2020/12/07 09:14:56;;;;;;;38.43;29.63;;;;;;;;;;5112682;27;20089;-64
2020/12/07 09:17:22;;;;;;;38.00;27.80;;;;;;;;;;5114307;27;20111;-64
2020/12/07 09:19:48;;;;;;;42.33;29.60;;;;;;;;;;5108015;27;20031;-64
2020/12/07 09:22:14;;;;;;;38.23;27.73;;;;;;;;;;5112767;27;20034;-63
2020/12/07 09:24:40;;;;;;;39.87;27.87;;;;;;;;;;5109039;27;20028;-64
2020/12/07 09:27:06;;;;;;;33.23;26.13;;;;;;;;;;5112610;27;20955;-63
2020/12/07 09:29:32;;;;;;;37.33;28.23;;;;;;;;;;5108714;27;20023;-63
2020/12/07 09:31:58;;;;;;;37.57;27.17;;;;;;;;;;5112891;27;20489;-63
2020/12/07 09:34:24;;;;;;;33.73;25.87;;;;;;;;;;5108710;27;20024;-63
2020/12/07 09:36:50;;;;;;;32.33;24.13;;;;;;;;;;5112924;27;20024;-63
2020/12/07 09:39:16;;;;;;;34.47;24.07;;;;;;;;;;5109208;27;20130;-63
2020/12/07 09:41:42;;;;;;;36.23;26.83;;;;;;;;;;5112115;27;20034;-63
2020/12/07 09:44:08;;;;;;;35.03;26.50;;;;;;;;;;5107371;27;20027;-64
2020/12/07 09:46:34;;;;;;;34.43;26.13;;;;;;;;;;5113251;27;20063;-64
2020/12/07 09:49:00;;;;;;;33.87;25.10;;;;;;;;;;5093705;27;20381;-63
2020/12/07 09:51:26;;;;;;;36.50;26.60;;;;;;;;;;5116377;27;20037;-63
2020/12/07 09:53:52;;;;;;;36.87;26.40;;;;;;;;;;5116442;27;20032;-63
2020/12/07 09:56:18;;;;;;;34.40;24.60;;;;;;;;;;5112935;27;20054;-63
2020/12/07 09:58:45;;;;;;;33.77;24.80;;;;;;;;;;5115244;27;20055;-63
2020/12/07 10:01:10;;;;;;;31.80;24.17;;;;;;;;;;5112967;27;20046;-63
2020/12/07 10:03:37;;;;;;;31.17;22.77;;;;;;;;;;5115893;27;20042;-63
2020/12/07 10:06:02;;;;;;;27.73;21.17;;;;;;;;;;5111405;27;20118;-63
2020/12/07 10:08:28;;;;;;;32.67;23.37;;;;;;;;;;5116306;27;20027;-63
2020/12/07 10:10:54;;;;;;;29.10;22.43;;;;;;;;;;5112340;27;20077;-65
2020/12/07 10:13:20;;;;;;;31.17;23.53;;;;;;;;;;5098833;27;20031;-62
2020/12/07 10:15:46;;;;;;;29.97;22.57;;;;;;;;;;5111809;27;20038;-63
2020/12/07 10:18:12;;;;;;;33.37;23.60;;;;;;;;;;5115932;27;20023;-63
2020/12/07 10:20:39;;;;;;;30.70;24.20;;;;;;;;;;5113411;27;20091;-63
2020/12/07 10:23:05;;;;;;;32.87;24.10;;;;;;;;;;5116323;27;20046;-64
2020/12/07 10:25:31;;;;;;;30.80;23.60;;;;;;;;;;5113396;27;20043;-64
2020/12/07 10:27:57;;;;;;;32.60;25.13;;;;;;;;;;5118967;27;20031;-64
2020/12/07 10:30:23;;;;;;;32.93;25.07;;;;;;;;;;5116253;27;20035;-63
2020/12/07 10:32:49;;;;;;;32.07;24.97;;;;;;;;;;5114008;27;20038;-64
2020/12/07 10:35:16;;;;;;;37.17;26.00;;;;;;;;;;5117695;27;20034;-63
2020/12/07 10:37:41;;;;;;;33.80;26.10;;;;;;;;;;5113150;27;20092;-63
2020/12/07 10:40:07;;;;;;;36.53;27.10;;;;;;;;;;5119804;27;20031;-64
2020/12/07 10:42:33;;;;;;;32.43;25.97;;;;;;;;;;5096150;27;20027;-63
2020/12/07 10:44:59;;;;;;;35.13;27.47;;;;;;;;;;5116023;27;20071;-63
2020/12/07 10:47:25;;;;;;;37.57;28.00;;;;;;;;;;5114177;27;20388;-63
2020/12/07 10:49:51;;;;;;;34.30;26.40;;;;;;;;;;5118229;27;20035;-63
2020/12/07 10:52:17;;;;;;;30.90;25.37;;;;;;;;;;5111284;27;20027;-63
2020/12/07 10:54:43;;;;;;;37.87;28.60;;;;;;;;;;5116672;27;20107;-63
2020/12/07 10:57:10;;;;;;;36.83;27.10;;;;;;;;;;5113811;27;20034;-63
2020/12/07 10:59:36;;;;;;;34.87;27.00;;;;;;;;;;5118035;27;20054;-63
2020/12/07 11:02:02;;;;;;;34.63;26.43;;;;;;;;;;5114444;27;20023;-63
2020/12/07 11:04:27;;;;;;;32.90;26.97;;;;;;;;;;5126767;27;20473;-64
2020/12/07 11:06:55;;;;;;;34.87;26.90;;;;;;;;;;5125143;27;20055;-63
2020/12/07 11:09:24;;;;;;;33.43;26.27;;;;;;;;;;5128003;27;20063;-63
2020/12/07 11:11:54;;;;;;;34.57;27.27;;;;;;;;;;5125091;27;20468;-62
2020/12/07 11:14:20;;;;;;;37.50;29.23;;;;;;;;;;5124003;27;20075;-63
2020/12/07 11:16:46;;;;;;;38.87;29.53;;;;;;;;;;5132555;27;20019;-62
2020/12/07 11:19:12;;;;;;;36.03;28.40;;;;;;;;;;5122320;27;20037;-63
2020/12/07 11:21:38;;;;;;;38.00;27.47;;;;;;;;;;5126852;27;20022;-63
2020/12/07 11:24:04;;;;;;;35.27;29.33;;;;;;;;;;5125938;27;20072;-63
2020/12/07 11:26:30;;;;;;;44.07;30.50;;;;;;;;;;5129886;27;20450;-62
2020/12/07 11:28:56;;;;;;;36.83;28.53;;;;;;;;;;5122328;27;20035;-62
2020/12/07 11:31:22;;;;;;;37.57;28.27;;;;;;;;;;5113689;27;20042;-63
2020/12/07 11:33:48;;;;;;;38.63;28.93;;;;;;;;;;5122062;27;20055;-63
2020/12/07 11:36:14;;;;;;;38.00;28.07;;;;;;;;;;5126563;27;20023;-63
2020/12/07 11:39:20;;;;;;;35.53;26.47;;;;;;;;;;5130089;27;20023;-63
2020/12/07 11:41:48;;;;;;;38.20;28.13;;;;;;;;;;5127339;27;20043;-63
2020/12/07 11:44:16;;;;;;;38.33;27.57;;;;;;;;;;5121336;27;20101;-63
2020/12/07 11:49:12;;;;;;;35.50;26.67;;;;;;;;;;5123924;27;20035;-63
2020/12/07 11:51:40;;;;;;;33.67;26.40;;;;;;;;;;5127833;27;20030;-62
2020/12/07 11:54:06;;;;;;;36.63;25.67;;;;;;;;;;5120863;27;20547;-63
2020/12/07 11:56:33;;;;;;;33.23;26.10;;;;;;;;;;5121544;27;20023;-64
2020/12/07 11:59:00;;;;;;;35.57;25.10;;;;;;;;;;5120530;27;20382;-63
2020/12/07 12:01:26;;;;;;;35.47;25.03;;;;;;;;;;5110739;27;20110;-63
2020/12/07 12:03:53;;;;;;;31.83;24.43;;;;;;;;;;5123059;27;20469;-63
2020/12/07 12:06:22;;;;;;;31.90;24.37;;;;;;;;;;5119060;27;20035;-63
2020/12/07 12:08:49;;;;;;;32.73;23.97;;;;;;;;;;5125132;27;20151;-63
2020/12/07 12:11:15;;;;;;;29.77;21.80;;;;;;;;;;5124235;27;20583;-63
2020/12/07 12:13:41;;;;;;;29.37;21.67;;;;;;;;;;5126876;27;20487;-63
2020/12/07 12:16:07;;;;;;;32.63;21.90;;;;;;;;;;5118852;27;20023;-63
2020/12/07 12:18:33;;;;;;;29.73;21.37;;;;;;;;;;5128685;27;20043;-63
2020/12/07 12:20:59;;;;;;;24.67;20.10;;;;;;;;;;5122536;27;20016;-63
2020/12/07 12:23:25;;;;;;;28.53;21.17;;;;;;;;;;5121943;27;20099;-63
2020/12/07 12:25:51;;;;;;;28.30;19.77;;;;;;;;;;5122947;27;20137;-64
2020/12/07 12:28:17;;;;;;;27.00;19.20;;;;;;;;;;5121969;27;20024;-64
2020/12/07 12:30:43;;;;;;;25.57;19.40;;;;;;;;;;5127039;27;20026;-64
2020/12/07 12:33:09;;;;;;;25.63;19.53;;;;;;;;;;5123129;27;20116;-64
2020/12/07 12:35:36;;;;;;;28.13;19.13;;;;;;;;;;5125703;27;20026;-64
2020/12/07 12:38:02;;;;;;;24.50;17.80;;;;;;;;;;5127473;27;20098;-65
2020/12/07 12:40:27;;;;;;;31.40;19.73;;;;;;;;;;5125717;27;20102;-65
2020/12/07 12:42:53;;;;;;;25.23;17.83;;;;;;;;;;5121661;27;20549;-63
2020/12/07 12:45:20;;;;;;;22.10;17.10;;;;;;;;;;5124332;27;20031;-64
2020/12/07 12:47:46;;;;;;;22.77;18.13;;;;;;;;;;5121658;27;20023;-64
2020/12/07 12:50:12;;;;;;;25.17;18.03;;;;;;;;;;5124969;27;20445;-64
2020/12/07 12:52:39;;;;;;;24.47;17.20;;;;;;;;;;5121579;27;20106;-64
2020/12/07 12:55:05;;;;;;;24.97;17.60;;;;;;;;;;5122529;27;20038;-64
2020/12/07 12:57:32;;;;;;;26.73;17.73;;;;;;;;;;5118887;27;20432;-64
2020/12/07 12:59:58;;;;;;;23.17;17.23;;;;;;;;;;5127433;27;20054;-64
2020/12/07 13:02:24;;;;;;;21.60;16.80;;;;;;;;;;5119076;27;20011;-64
2020/12/07 13:04:50;;;;;;;21.70;16.40;;;;;;;;;;5120323;27;20097;-64
2020/12/07 13:07:16;;;;;;;24.97;18.40;;;;;;;;;;5117470;27;20095;-63
2020/12/07 13:09:42;;;;;;;23.93;17.50;;;;;;;;;;5127168;27;20034;-64
2020/12/07 13:12:08;;;;;;;19.93;17.30;;;;;;;;;;5117046;27;20373;-64
2020/12/07 13:14:34;;;;;;;23.57;17.70;;;;;;;;;;5113828;27;20022;-64
2020/12/07 13:17:07;;;;;;;24.33;17.37;;;;;;;;;;5123758;27;20019;-64
2020/12/07 13:19:33;;;;;;;24.93;17.23;;;;;;;;;;5105464;28;20353;-64
2020/12/07 13:24:41;;;;;;;21.97;17.80;;;;;;;;;;5120658;27;20040;-64
2020/12/07 13:27:45;;;;;;;23.47;17.57;;;;;;;;;;5132102;27;20097;-64
2020/12/07 13:29:59;;;;;;;23.20;18.03;;;;;;;;;;5125544;27;20036;-64
2020/12/07 13:32:25;;;;;;;25.07;17.63;;;;;;;;;;5121023;27;20023;-64
2020/12/07 13:34:52;;;;;;;23.23;16.47;;;;;;;;;;5125547;27;20026;-64
2020/12/07 13:37:18;;;;;;;24.37;16.17;;;;;;;;;;5126621;27;20024;-64
2020/12/07 13:39:45;;;;;;;22.27;16.60;;;;;;;;;;5122475;27;20023;-64
2020/12/07 13:42:11;;;;;;;24.37;17.23;;;;;;;;;;5125315;27;20020;-65
2020/12/07 13:44:37;;;;;;;19.83;15.40;;;;;;;;;;5121125;27;20076;-64
2020/12/07 13:47:04;;;;;;;22.80;15.73;;;;;;;;;;5120667;27;20098;-64
2020/12/07 13:49:30;;;;;;;21.00;15.43;;;;;;;;;;5120496;27;20027;-63
2020/12/07 13:51:56;;;;;;;22.30;15.77;;;;;;;;;;5123222;27;20023;-64
2020/12/07 13:54:22;;;;;;;22.43;16.80;;;;;;;;;;5125151;27;20034;-63
2020/12/07 13:56:48;;;;;;;20.88;15.00;;;;;;;;;;5122779;27;20054;-63
2020/12/07 13:59:14;;;;;;;21.57;16.93;;;;;;;;;;5116901;27;20035;-64
2020/12/07 14:01:40;;;;;;;27.97;17.93;;;;;;;;;;5107339;27;20027;-63
2020/12/07 14:06:48;;;;;;;19.30;15.30;;;;;;;;;;5123180;27;20046;-64
2020/12/07 14:09:14;;;;;;;19.50;14.87;;;;;;;;;;5120893;27;20373;-63
2020/12/07 14:11:41;;;;;;;23.53;16.17;;;;;;;;;;5121959;27;20078;-63
2020/12/07 14:14:07;;;;;;;23.77;16.87;;;;;;;;;;5128397;27;20681;-63
2020/12/07 14:16:36;;;;;;;25.47;17.43;;;;;;;;;;5123428;27;20516;-64
2020/12/07 14:19:12;;;;;;;22.73;16.83;;;;;;;;;;5130867;27;20026;-63
2020/12/07 14:27:02;;;;;;;24.73;18.87;;;;;;;;;;5120904;27;20377;-63
2020/12/07 14:40:23;;;;;;;25.70;18.10;;;;;;;;;;5122975;27;20034;-64
2020/12/07 14:42:49;;;;;;;25.90;18.70;;;;;;;;;;5127501;27;20087;-64
2020/12/07 14:45:25;;;;;;;25.83;17.67;;;;;;;;;;5125894;27;20044;-64
2020/12/07 14:48:03;;;;;;;24.60;17.70;;;;;;;;;;5129152;27;20544;-63
2020/12/07 14:50:44;;;;;;;22.70;16.93;;;;;;;;;;5118657;27;20106;-64
2020/12/07 14:53:22;;;;;;;24.73;16.87;;;;;;;;;;5106976;27;20890;-64
2020/12/07 15:06:23;;;;;;;25.95;18.73;;;;;;;;;;5116783;27;20092;-64
2020/12/07 15:14:04;;;;;;;24.93;16.87;;;;;;;;;;5123306;27;20484;-64
2020/12/07 15:16:30;;;;;;;22.93;17.43;;;;;;;;;;5125022;27;20023;-64
2020/12/07 15:18:57;;;;;;;22.07;16.17;;;;;;;;;;5127451;27;20079;-64
2020/12/07 15:21:24;;;;;;;25.37;17.30;;;;;;;;;;5110455;27;20480;-64
2020/12/07 15:23:50;;;;;;;22.17;15.83;;;;;;;;;;5122235;27;20103;-64
2020/12/07 15:26:17;;;;;;;23.20;16.43;;;;;;;;;;5124197;27;20038;-64
2020/12/07 15:28:43;;;;;;;23.33;16.70;;;;;;;;;;5103049;27;20030;-64